createdAt,value
2017-12-13T00:00:02.793Z,1014.15
2017-12-13T00:01:29.964Z,1014.17
2017-12-13T00:02:57.041Z,1014.18
2017-12-13T00:04:24.406Z,1014.21
2017-12-13T00:05:51.645Z,1014.27
2017-12-13T00:07:18.741Z,1014.30
2017-12-13T00:08:45.973Z,1014.32
2017-12-13T00:10:13.220Z,1014.30
2017-12-13T00:11:40.339Z,1014.32
2017-12-13T00:13:07.598Z,1014.33
2017-12-13T00:14:34.675Z,1014.38
2017-12-13T00:16:01.980Z,1014.38
2017-12-13T00:17:29.040Z,1014.39
2017-12-13T00:18:56.553Z,1014.40
2017-12-13T00:20:23.733Z,1014.40
2017-12-13T00:21:51.056Z,1014.36
2017-12-13T00:23:18.182Z,1014.36
2017-12-13T00:24:45.591Z,1014.40
2017-12-13T00:26:12.807Z,1014.44
2017-12-13T00:27:40.044Z,1014.41
2017-12-13T00:29:07.159Z,1014.45
2017-12-13T00:30:34.100Z,1014.43
2017-12-13T00:32:01.051Z,1014.45
2017-12-13T00:33:27.641Z,1014.48
2017-12-13T00:34:54.895Z,1014.47
2017-12-13T00:36:22.196Z,1014.48
2017-12-13T00:37:49.294Z,1014.53
2017-12-13T00:39:16.405Z,1014.51
2017-12-13T00:40:43.538Z,1014.56
2017-12-13T00:42:10.817Z,1014.57
2017-12-13T00:43:38.108Z,1014.58
2017-12-13T00:45:05.290Z,1014.55
2017-12-13T00:46:32.463Z,1014.55
2017-12-13T00:47:59.809Z,1014.54
2017-12-13T00:49:27.026Z,1014.53
2017-12-13T00:50:54.267Z,1014.56
2017-12-13T00:52:21.520Z,1014.58
2017-12-13T00:53:48.899Z,1014.60
2017-12-13T00:55:15.906Z,1014.62
2017-12-13T00:56:43.259Z,1014.65
2017-12-13T00:58:10.328Z,1014.62
2017-12-13T00:59:37.476Z,1014.64
2017-12-13T01:01:04.487Z,1014.67
2017-12-13T01:02:31.680Z,1014.66
2017-12-13T01:03:58.980Z,1014.73
2017-12-13T01:05:26.315Z,1014.75
2017-12-13T01:06:53.518Z,1014.81
2017-12-13T01:08:20.791Z,1014.85
2017-12-13T01:09:47.916Z,1014.85
2017-12-13T01:11:15.300Z,1014.87
2017-12-13T01:12:42.432Z,1014.90
2017-12-13T01:14:09.697Z,1014.90
2017-12-13T01:15:36.881Z,1014.96
2017-12-13T01:17:03.810Z,1014.97
2017-12-13T01:18:31.225Z,1015.01
2017-12-13T01:19:58.472Z,1015.01
2017-12-13T01:21:25.828Z,1015.01
2017-12-13T01:22:53.046Z,1014.99
2017-12-13T01:24:20.275Z,1014.99
2017-12-13T01:25:47.523Z,1014.96
2017-12-13T01:27:14.764Z,1015.01
2017-12-13T01:28:41.868Z,1015.02
2017-12-13T01:30:08.901Z,1015.00
2017-12-13T01:31:36.052Z,1015.03
2017-12-13T01:33:03.445Z,1015.00
2017-12-13T01:34:30.475Z,1015.04
2017-12-13T01:35:57.741Z,1015.06
2017-12-13T01:37:24.870Z,1015.07
2017-12-13T01:38:52.223Z,1015.08
2017-12-13T01:40:19.352Z,1015.13
2017-12-13T01:41:46.535Z,1015.15
2017-12-13T01:43:13.897Z,1015.19
2017-12-13T01:44:41.101Z,1015.20
2017-12-13T01:46:08.288Z,1015.22
2017-12-13T01:47:35.358Z,1015.18
2017-12-13T01:49:02.725Z,1015.15
2017-12-13T01:50:29.977Z,1015.13
2017-12-13T01:51:57.102Z,1015.12
2017-12-13T01:53:24.278Z,1015.17
2017-12-13T01:54:51.643Z,1015.12
2017-12-13T01:56:18.904Z,1015.11
2017-12-13T01:57:46.068Z,1015.09
2017-12-13T01:59:13.337Z,1015.09
2017-12-13T02:00:40.539Z,1015.09
2017-12-13T02:02:07.630Z,1015.12
2017-12-13T02:03:34.591Z,1015.13
2017-12-13T02:05:01.977Z,1015.09
2017-12-13T02:06:29.120Z,1015.11
2017-12-13T02:07:56.228Z,1015.14
2017-12-13T02:09:23.573Z,1015.14
2017-12-13T02:10:50.930Z,1015.13
2017-12-13T02:12:17.999Z,1015.14
2017-12-13T02:13:45.168Z,1015.15
2017-12-13T02:15:12.456Z,1015.12
2017-12-13T02:16:39.559Z,1015.08
2017-12-13T02:18:06.912Z,1015.10
2017-12-13T02:19:33.709Z,1015.11
2017-12-13T02:21:00.875Z,1015.11
2017-12-13T02:22:28.221Z,1015.08
2017-12-13T02:23:55.395Z,1015.10
2017-12-13T02:25:22.522Z,1015.08
2017-12-13T02:26:49.937Z,1015.06
2017-12-13T02:28:16.865Z,1015.07
2017-12-13T02:29:44.096Z,1015.08
2017-12-13T02:31:11.238Z,1015.08
2017-12-13T02:32:38.417Z,1015.08
2017-12-13T02:34:05.652Z,1015.11
2017-12-13T02:35:32.599Z,1015.10
2017-12-13T02:36:59.723Z,1015.10
2017-12-13T02:38:27.143Z,1015.06
2017-12-13T02:39:54.528Z,1015.05
2017-12-13T02:41:21.731Z,1015.01
2017-12-13T02:42:48.993Z,1015.00
2017-12-13T02:44:16.163Z,1014.98
2017-12-13T02:45:43.503Z,1015.02
2017-12-13T02:47:10.791Z,1015.04
2017-12-13T02:48:37.963Z,1015.02
2017-12-13T02:50:05.249Z,1015.01
2017-12-13T02:51:32.459Z,1015.04
2017-12-13T02:52:59.652Z,1015.07
2017-12-13T02:54:26.947Z,1015.08
2017-12-13T02:55:54.115Z,1015.09
2017-12-13T02:57:21.363Z,1015.05
2017-12-13T02:58:48.664Z,1015.05
2017-12-13T03:00:15.960Z,1015.07
2017-12-13T03:01:43.013Z,1015.05
2017-12-13T03:03:10.119Z,1015.03
2017-12-13T03:04:37.501Z,1015.07
2017-12-13T03:06:04.637Z,1015.00
2017-12-13T03:07:31.935Z,1014.99
2017-12-13T03:08:59.065Z,1014.96
2017-12-13T03:10:26.240Z,1014.92
2017-12-13T03:11:53.570Z,1014.90
2017-12-13T03:13:20.761Z,1014.92
2017-12-13T03:14:48.039Z,1014.90
2017-12-13T03:16:15.200Z,1014.87
2017-12-13T03:17:42.533Z,1014.82
2017-12-13T03:19:09.846Z,1014.75
2017-12-13T03:20:37.051Z,1014.79
2017-12-13T03:22:04.112Z,1014.77
2017-12-13T03:23:31.391Z,1014.74
2017-12-13T03:24:58.529Z,1014.77
2017-12-13T03:26:25.845Z,1014.75
2017-12-13T03:27:52.905Z,1014.78
2017-12-13T03:29:20.167Z,1014.76
2017-12-13T03:30:47.307Z,1014.79
2017-12-13T03:32:14.536Z,1014.80
2017-12-13T03:33:41.815Z,1014.77
2017-12-13T03:35:09.065Z,1014.78
2017-12-13T03:36:36.224Z,1014.80
2017-12-13T03:38:03.459Z,1014.78
2017-12-13T03:39:30.650Z,1014.78
2017-12-13T03:40:57.812Z,1014.78
2017-12-13T03:42:25.031Z,1014.78
2017-12-13T03:43:52.368Z,1014.76
2017-12-13T03:45:19.696Z,1014.74
2017-12-13T03:46:46.874Z,1014.74
2017-12-13T03:48:14.234Z,1014.70
2017-12-13T03:49:41.451Z,1014.70
2017-12-13T03:51:08.547Z,1014.71
2017-12-13T03:52:35.758Z,1014.68
2017-12-13T03:54:02.776Z,1014.69
2017-12-13T03:55:29.860Z,1014.67
2017-12-13T03:56:57.303Z,1014.64
2017-12-13T03:58:24.389Z,1014.63
2017-12-13T03:59:51.669Z,1014.63
2017-12-13T04:01:18.894Z,1014.62
2017-12-13T04:02:46.254Z,1014.65
2017-12-13T04:04:13.458Z,1014.64
2017-12-13T04:05:40.683Z,1014.67
2017-12-13T04:07:07.933Z,1014.62
2017-12-13T04:08:35.035Z,1014.62
2017-12-13T04:10:02.422Z,1014.65
2017-12-13T04:11:29.468Z,1014.62
2017-12-13T04:12:56.840Z,1014.63
2017-12-13T04:14:23.981Z,1014.59
2017-12-13T04:15:51.249Z,1014.54
2017-12-13T04:17:18.646Z,1014.53
2017-12-13T04:18:45.618Z,1014.52
2017-12-13T04:20:12.894Z,1014.54
2017-12-13T04:21:40.166Z,1014.57
2017-12-13T04:23:07.540Z,1014.57
2017-12-13T04:24:34.626Z,1014.56
2017-12-13T04:26:01.903Z,1014.56
2017-12-13T04:27:29.144Z,1014.57
2017-12-13T04:28:56.410Z,1014.54
2017-12-13T04:30:23.753Z,1014.52
2017-12-13T04:31:50.745Z,1014.53
2017-12-13T04:33:17.992Z,1014.52
2017-12-13T04:34:45.244Z,1014.46
2017-12-13T04:36:12.486Z,1014.50
2017-12-13T04:37:39.864Z,1014.47
2017-12-13T04:39:07.027Z,1014.46
2017-12-13T04:40:33.944Z,1014.44
2017-12-13T04:42:01.224Z,1014.45
2017-12-13T04:43:28.515Z,1014.45
2017-12-13T04:44:55.948Z,1014.44
2017-12-13T04:46:23.117Z,1014.46
2017-12-13T04:47:50.312Z,1014.45
2017-12-13T04:49:17.255Z,1014.38
2017-12-13T04:50:44.568Z,1014.33
2017-12-13T04:52:11.792Z,1014.31
2017-12-13T04:53:39.116Z,1014.28
2017-12-13T04:55:06.168Z,1014.27
2017-12-13T04:56:33.438Z,1014.22
2017-12-13T04:58:00.774Z,1014.18
2017-12-13T04:59:27.984Z,1014.17
2017-12-13T05:00:55.183Z,1014.15
2017-12-13T05:02:22.256Z,1014.13
2017-12-13T05:03:49.604Z,1014.13
2017-12-13T05:05:16.816Z,1014.12
2017-12-13T05:06:43.965Z,1014.09
2017-12-13T05:08:11.177Z,1014.09
2017-12-13T05:09:38.214Z,1014.08
2017-12-13T05:11:05.297Z,1014.07
2017-12-13T05:12:32.633Z,1014.04
2017-12-13T05:13:59.905Z,1014.03
2017-12-13T05:15:27.224Z,1014.01
2017-12-13T05:16:54.482Z,1013.98
2017-12-13T05:18:21.813Z,1013.98
2017-12-13T05:19:48.844Z,1014.00
2017-12-13T05:21:16.048Z,1014.00
2017-12-13T05:22:43.249Z,1014.00
2017-12-13T05:24:10.428Z,1013.98
2017-12-13T05:25:37.739Z,1013.98
2017-12-13T05:27:07.929Z,1013.97
2017-12-13T05:28:32.149Z,1013.98
2017-12-13T05:29:59.391Z,1013.98
2017-12-13T05:31:26.444Z,1013.95
2017-12-13T05:32:53.685Z,1013.94
2017-12-13T05:34:20.972Z,1014.00
2017-12-13T05:35:47.993Z,1014.00
2017-12-13T05:37:15.355Z,1014.00
2017-12-13T05:38:42.728Z,1014.00
2017-12-13T05:40:09.817Z,1014.02
2017-12-13T05:41:36.844Z,1014.04
2017-12-13T05:43:04.148Z,1014.04
2017-12-13T05:44:31.338Z,1014.01
2017-12-13T05:45:58.499Z,1013.99
2017-12-13T05:47:25.740Z,1013.95
2017-12-13T05:48:53.110Z,1013.93
2017-12-13T05:50:20.149Z,1013.95
2017-12-13T05:51:47.404Z,1013.98
2017-12-13T05:53:14.575Z,1014.01
2017-12-13T05:54:41.881Z,1014.01
2017-12-13T05:56:09.187Z,1013.98
2017-12-13T05:57:36.211Z,1013.94
2017-12-13T05:59:03.273Z,1013.89
2017-12-13T06:00:30.484Z,1013.87
2017-12-13T06:01:57.688Z,1013.85
2017-12-13T06:03:24.919Z,1013.87
2017-12-13T06:04:52.069Z,1013.82
2017-12-13T06:06:19.275Z,1013.80
2017-12-13T06:07:46.328Z,1013.75
2017-12-13T06:09:13.390Z,1013.78
2017-12-13T06:10:40.693Z,1013.75
2017-12-13T06:12:07.853Z,1013.73
2017-12-13T06:13:34.871Z,1013.72
2017-12-13T06:15:01.972Z,1013.75
2017-12-13T06:16:29.180Z,1013.74
2017-12-13T06:17:56.481Z,1013.70
2017-12-13T06:19:23.664Z,1013.66
2017-12-13T06:20:50.942Z,1013.65
2017-12-13T06:22:17.839Z,1013.60
2017-12-13T06:23:45.162Z,1013.61
2017-12-13T06:25:12.294Z,1013.58
2017-12-13T06:26:39.632Z,1013.59
2017-12-13T06:28:06.943Z,1013.59
2017-12-13T06:29:34.052Z,1013.58
2017-12-13T06:31:01.217Z,1013.59
2017-12-13T06:32:28.233Z,1013.58
2017-12-13T06:33:55.518Z,1013.55
2017-12-13T06:35:22.456Z,1013.54
2017-12-13T06:36:49.644Z,1013.53
2017-12-13T06:38:17.113Z,1013.50
2017-12-13T06:39:44.371Z,1013.47
2017-12-13T06:41:11.544Z,1013.47
2017-12-13T06:42:38.656Z,1013.48
2017-12-13T06:44:05.787Z,1013.46
2017-12-13T06:45:33.014Z,1013.47
2017-12-13T06:46:59.991Z,1013.45
2017-12-13T06:48:27.092Z,1013.48
2017-12-13T06:49:54.365Z,1013.46
2017-12-13T06:51:21.643Z,1013.49
2017-12-13T06:52:48.534Z,1013.51
2017-12-13T06:54:15.820Z,1013.48
2017-12-13T06:55:42.686Z,1013.45
2017-12-13T06:57:09.954Z,1013.46
2017-12-13T06:58:36.976Z,1013.42
2017-12-13T07:00:04.095Z,1013.43
2017-12-13T07:01:31.232Z,1013.43
2017-12-13T07:02:58.508Z,1013.40
2017-12-13T07:04:25.618Z,1013.40
2017-12-13T07:05:52.700Z,1013.39
2017-12-13T07:07:19.990Z,1013.40
2017-12-13T07:08:47.254Z,1013.35
2017-12-13T07:10:14.315Z,1013.34
2017-12-13T07:11:41.565Z,1013.27
2017-12-13T07:13:08.769Z,1013.22
2017-12-13T07:14:35.777Z,1013.17
2017-12-13T07:16:03.071Z,1013.17
2017-12-13T07:17:30.423Z,1013.13
2017-12-13T07:18:57.503Z,1013.11
2017-12-13T07:20:24.757Z,1013.12
2017-12-13T07:21:51.962Z,1013.15
2017-12-13T07:23:19.271Z,1013.18
2017-12-13T07:24:46.493Z,1013.15
2017-12-13T07:26:13.602Z,1013.17
2017-12-13T07:27:40.862Z,1013.14
2017-12-13T07:29:07.807Z,1013.13
2017-12-13T07:30:34.965Z,1013.13
2017-12-13T07:32:02.366Z,1013.10
2017-12-13T07:33:29.421Z,1013.08
2017-12-13T07:34:56.614Z,1013.08
2017-12-13T07:36:23.924Z,1013.07
2017-12-13T07:37:51.141Z,1013.04
2017-12-13T07:39:18.241Z,1013.03
2017-12-13T07:40:45.612Z,1012.99
2017-12-13T07:42:12.895Z,1012.97
2017-12-13T07:43:40.094Z,1012.94
2017-12-13T07:45:07.165Z,1012.95
2017-12-13T07:46:34.290Z,1012.93
2017-12-13T07:48:01.612Z,1012.98
2017-12-13T07:49:28.747Z,1012.92
2017-12-13T07:50:55.852Z,1012.91
2017-12-13T07:52:23.098Z,1012.88
2017-12-13T07:53:50.269Z,1012.89
2017-12-13T07:55:17.558Z,1012.77
2017-12-13T07:56:44.467Z,1012.79
2017-12-13T07:58:11.524Z,1012.72
2017-12-13T07:59:38.642Z,1012.72
2017-12-13T08:01:05.786Z,1012.71
2017-12-13T08:02:33.028Z,1012.63
2017-12-13T08:04:00.382Z,1012.65
2017-12-13T08:05:27.436Z,1012.61
2017-12-13T08:06:54.617Z,1012.63
2017-12-13T08:08:21.625Z,1012.59
2017-12-13T08:09:49.008Z,1012.61
2017-12-13T08:11:16.342Z,1012.54
2017-12-13T08:12:43.316Z,1012.52
2017-12-13T08:14:10.355Z,1012.51
2017-12-13T08:15:37.310Z,1012.51
2017-12-13T08:17:04.412Z,1012.47
2017-12-13T08:18:31.626Z,1012.49
2017-12-13T08:19:58.830Z,1012.48
2017-12-13T08:21:26.045Z,1012.45
2017-12-13T08:22:53.217Z,1012.45
2017-12-13T08:24:20.708Z,1012.46
2017-12-13T08:25:47.824Z,1012.45
2017-12-13T08:27:15.113Z,1012.40
2017-12-13T08:28:42.278Z,1012.37
2017-12-13T08:30:09.246Z,1012.36
2017-12-13T08:31:36.544Z,1012.34
2017-12-13T08:33:03.785Z,1012.32
2017-12-13T08:34:30.748Z,1012.27
2017-12-13T08:35:57.949Z,1012.28
2017-12-13T08:37:25.070Z,1012.24
2017-12-13T08:38:52.296Z,1012.22
2017-12-13T08:40:19.520Z,1012.18
2017-12-13T08:41:46.766Z,1012.18
2017-12-13T08:43:13.705Z,1012.17
2017-12-13T08:44:40.947Z,1012.12
2017-12-13T08:46:08.180Z,1012.04
2017-12-13T08:47:35.386Z,1012.04
2017-12-13T08:49:02.644Z,1011.98
2017-12-13T08:50:29.815Z,1011.94
2017-12-13T08:51:56.629Z,1011.93
2017-12-13T08:53:23.862Z,1011.91
2017-12-13T08:54:50.948Z,1011.84
2017-12-13T08:56:18.190Z,1011.86
2017-12-13T08:57:45.475Z,1011.78
2017-12-13T08:59:12.762Z,1011.75
2017-12-13T09:00:39.965Z,1011.76
2017-12-13T09:02:06.920Z,1011.79
2017-12-13T09:03:34.013Z,1011.75
2017-12-13T09:05:01.313Z,1011.79
2017-12-13T09:06:28.507Z,1011.77
2017-12-13T09:07:55.576Z,1011.71
2017-12-13T09:09:22.780Z,1011.73
2017-12-13T09:10:49.972Z,1011.70
2017-12-13T09:12:16.977Z,1011.71
2017-12-13T09:13:44.327Z,1011.67
2017-12-13T09:15:11.376Z,1011.68
2017-12-13T09:16:38.656Z,1011.67
2017-12-13T09:18:05.665Z,1011.66
2017-12-13T09:19:32.867Z,1011.67
2017-12-13T09:21:00.231Z,1011.65
2017-12-13T09:22:27.300Z,1011.59
2017-12-13T09:23:54.200Z,1011.56
2017-12-13T09:25:21.357Z,1011.55
2017-12-13T09:26:48.448Z,1011.57
2017-12-13T09:28:15.600Z,1011.51
2017-12-13T09:29:42.709Z,1011.49
2017-12-13T09:31:10.070Z,1011.43
2017-12-13T09:32:36.991Z,1011.36
2017-12-13T09:34:03.974Z,1011.35
2017-12-13T09:35:31.152Z,1011.33
2017-12-13T09:36:58.481Z,1011.30
2017-12-13T09:38:25.587Z,1011.25
2017-12-13T09:39:52.801Z,1011.22
2017-12-13T09:41:19.777Z,1011.14
2017-12-13T09:42:46.943Z,1011.07
2017-12-13T09:44:14.194Z,1011.12
2017-12-13T09:45:41.349Z,1011.02
2017-12-13T09:47:08.504Z,1010.95
2017-12-13T09:48:35.474Z,1010.88
2017-12-13T09:50:02.893Z,1010.87
2017-12-13T09:51:30.221Z,1010.84
2017-12-13T09:52:57.418Z,1010.75
2017-12-13T09:54:24.967Z,1010.74
2017-12-13T09:55:51.977Z,1010.61
2017-12-13T09:57:19.325Z,1010.59
2017-12-13T09:58:46.482Z,1010.58
2017-12-13T10:00:13.756Z,1010.59
2017-12-13T10:01:40.790Z,1010.54
2017-12-13T10:03:08.204Z,1010.49
2017-12-13T10:04:35.267Z,1010.48
2017-12-13T10:06:02.506Z,1010.48
2017-12-13T10:07:29.803Z,1010.42
2017-12-13T10:08:57.139Z,1010.35
2017-12-13T10:10:24.346Z,1010.33
2017-12-13T10:11:51.406Z,1010.32
2017-12-13T10:13:18.680Z,1010.33
2017-12-13T10:14:45.911Z,1010.31
2017-12-13T10:16:13.261Z,1010.27
2017-12-13T10:17:40.578Z,1010.23
2017-12-13T10:19:07.713Z,1010.18
2017-12-13T10:20:34.802Z,1010.14
2017-12-13T10:22:02.146Z,1010.14
2017-12-13T10:23:29.351Z,1010.08
2017-12-13T10:24:56.801Z,1010.10
2017-12-13T10:26:23.777Z,1010.03
2017-12-13T10:27:51.216Z,1009.98
2017-12-13T10:29:18.401Z,1009.93
2017-12-13T10:30:45.673Z,1009.94
2017-12-13T10:32:12.852Z,1009.94
2017-12-13T10:33:39.943Z,1009.87
2017-12-13T10:35:07.106Z,1009.84
2017-12-13T10:36:34.336Z,1009.83
2017-12-13T10:38:01.624Z,1009.77
2017-12-13T10:39:28.846Z,1009.74
2017-12-13T10:40:56.026Z,1009.67
2017-12-13T10:42:23.375Z,1009.65
2017-12-13T10:43:50.715Z,1009.52
2017-12-13T10:45:17.949Z,1009.48
2017-12-13T10:46:45.074Z,1009.41
2017-12-13T10:48:12.113Z,1009.42
2017-12-13T10:49:39.370Z,1009.38
2017-12-13T10:51:06.401Z,1009.35
2017-12-13T10:52:33.628Z,1009.34
2017-12-13T10:54:00.896Z,1009.30
2017-12-13T10:55:28.184Z,1009.23
2017-12-13T10:56:55.301Z,1009.16
2017-12-13T10:58:22.553Z,1009.09
2017-12-13T10:59:49.799Z,1009.00
2017-12-13T11:01:17.008Z,1008.96
2017-12-13T11:02:44.221Z,1008.94
2017-12-13T11:04:11.552Z,1008.89
2017-12-13T11:05:38.813Z,1008.82
2017-12-13T11:07:05.993Z,1008.86
2017-12-13T11:08:33.319Z,1008.82
2017-12-13T11:10:00.518Z,1008.74
2017-12-13T11:11:27.742Z,1008.68
2017-12-13T11:12:55.048Z,1008.73
2017-12-13T11:14:22.388Z,1008.64
2017-12-13T11:15:49.673Z,1008.65
2017-12-13T11:17:16.956Z,1008.61
2017-12-13T11:18:44.384Z,1008.59
2017-12-13T11:20:11.476Z,1008.57
2017-12-13T11:21:38.713Z,1008.51
2017-12-13T11:23:05.738Z,1008.42
2017-12-13T11:24:33.184Z,1008.39
2017-12-13T11:26:00.433Z,1008.36
2017-12-13T11:27:27.624Z,1008.32
2017-12-13T11:28:54.968Z,1008.34
2017-12-13T11:30:22.324Z,1008.28
2017-12-13T11:31:49.609Z,1008.26
2017-12-13T11:33:16.727Z,1008.19
2017-12-13T11:34:43.876Z,1008.16
2017-12-13T11:36:11.048Z,1008.09
2017-12-13T11:37:38.315Z,1008.12
2017-12-13T11:39:05.603Z,1008.10
2017-12-13T11:40:32.901Z,1008.05
2017-12-13T11:42:00.351Z,1008.02
2017-12-13T11:43:27.504Z,1007.99
2017-12-13T11:44:54.728Z,1007.97
2017-12-13T11:46:21.897Z,1007.93
2017-12-13T11:47:49.342Z,1007.89
2017-12-13T11:49:16.662Z,1007.79
2017-12-13T11:50:43.882Z,1007.69
2017-12-13T11:52:11.011Z,1007.68
2017-12-13T11:53:38.413Z,1007.62
2017-12-13T11:55:05.596Z,1007.59
2017-12-13T11:56:32.815Z,1007.63
2017-12-13T11:58:00.102Z,1007.59
2017-12-13T11:59:27.517Z,1007.54
2017-12-13T12:00:55.753Z,1007.53
2017-12-13T12:02:22.129Z,1007.52
2017-12-13T12:03:49.389Z,1007.48
2017-12-13T12:05:16.771Z,1007.45
2017-12-13T12:06:44.072Z,1007.41
2017-12-13T12:08:11.296Z,1007.40
2017-12-13T12:09:38.440Z,1007.40
2017-12-13T12:11:05.741Z,1007.42
2017-12-13T12:12:33.150Z,1007.35
2017-12-13T12:14:00.560Z,1007.23
2017-12-13T12:15:27.743Z,1007.19
2017-12-13T12:16:54.758Z,1007.12
2017-12-13T12:18:22.204Z,1007.11
2017-12-13T12:19:49.384Z,1007.01
2017-12-13T12:21:16.672Z,1006.91
2017-12-13T12:22:43.667Z,1006.84
2017-12-13T12:24:10.833Z,1006.77
2017-12-13T12:25:37.915Z,1006.77
2017-12-13T12:27:05.082Z,1006.67
2017-12-13T12:28:32.340Z,1006.69
2017-12-13T12:29:59.599Z,1006.64
2017-12-13T12:31:26.792Z,1006.53
2017-12-13T12:32:53.901Z,1006.51
2017-12-13T12:34:21.314Z,1006.43
2017-12-13T12:35:48.646Z,1006.36
2017-12-13T12:37:15.975Z,1006.26
2017-12-13T12:38:43.184Z,1006.21
2017-12-13T12:40:10.540Z,1006.12
2017-12-13T12:41:37.614Z,1006.06
2017-12-13T12:43:04.448Z,1006.05
2017-12-13T12:44:31.769Z,1005.96
2017-12-13T12:45:59.084Z,1006.03
2017-12-13T12:47:26.228Z,1006.05
2017-12-13T12:48:53.434Z,1006.01
2017-12-13T12:50:20.533Z,1006.02
2017-12-13T12:51:47.685Z,1005.99
2017-12-13T12:53:14.808Z,1005.95
2017-12-13T12:54:42.065Z,1005.89
2017-12-13T12:56:09.484Z,1005.87
2017-12-13T12:57:36.524Z,1005.86
2017-12-13T12:59:03.724Z,1005.84
2017-12-13T13:00:31.317Z,1005.83
2017-12-13T13:01:58.364Z,1005.79
2017-12-13T13:03:25.635Z,1005.75
2017-12-13T13:04:52.761Z,1005.67
2017-12-13T13:06:20.065Z,1005.61
2017-12-13T13:07:47.349Z,1005.58
2017-12-13T13:09:14.692Z,1005.56
2017-12-13T13:10:41.780Z,1005.53
2017-12-13T13:12:09.027Z,1005.54
2017-12-13T13:13:36.167Z,1005.48
2017-12-13T13:15:03.534Z,1005.47
2017-12-13T13:16:30.831Z,1005.39
2017-12-13T13:17:57.991Z,1005.38
2017-12-13T13:19:25.288Z,1005.31
2017-12-13T13:20:52.727Z,1005.29
2017-12-13T13:22:19.831Z,1005.23
2017-12-13T13:23:47.199Z,1005.21
2017-12-13T13:25:14.491Z,1005.11
2017-12-13T13:26:41.626Z,1005.13
2017-12-13T13:28:08.989Z,1005.07
2017-12-13T13:29:36.232Z,1005.05
2017-12-13T13:31:03.310Z,1005.09
2017-12-13T13:32:30.352Z,1005.03
2017-12-13T13:33:57.642Z,1005.02
2017-12-13T13:35:24.881Z,1004.95
2017-12-13T13:36:52.106Z,1004.95
2017-12-13T13:38:19.284Z,1004.88
2017-12-13T13:39:46.658Z,1004.89
2017-12-13T13:41:13.952Z,1004.85
2017-12-13T13:42:41.141Z,1004.81
2017-12-13T13:44:08.382Z,1004.82
2017-12-13T13:45:35.560Z,1004.80
2017-12-13T13:47:02.702Z,1004.82
2017-12-13T13:48:30.169Z,1004.78
2017-12-13T13:49:57.312Z,1004.68
2017-12-13T13:51:24.549Z,1004.68
2017-12-13T13:52:51.810Z,1004.58
2017-12-13T13:54:18.940Z,1004.54
2017-12-13T13:55:46.300Z,1004.54
2017-12-13T13:57:13.490Z,1004.52
2017-12-13T13:58:40.360Z,1004.45
2017-12-13T14:00:07.681Z,1004.48
2017-12-13T14:01:34.866Z,1004.43
2017-12-13T14:03:02.203Z,1004.40
2017-12-13T14:04:29.240Z,1004.38
2017-12-13T14:05:56.352Z,1004.33
2017-12-13T14:07:23.585Z,1004.30
2017-12-13T14:08:50.806Z,1004.29
2017-12-13T14:10:18.065Z,1004.20
2017-12-13T14:11:45.483Z,1004.12
2017-12-13T14:13:12.848Z,1004.13
2017-12-13T14:14:39.913Z,1004.07
2017-12-13T14:16:07.171Z,1004.02
2017-12-13T14:17:34.097Z,1003.94
2017-12-13T14:19:01.184Z,1003.96
2017-12-13T14:20:28.360Z,1003.92
2017-12-13T14:21:55.675Z,1003.85
2017-12-13T14:23:22.920Z,1003.82
2017-12-13T14:24:50.213Z,1003.81
2017-12-13T14:26:17.479Z,1003.72
2017-12-13T14:27:44.633Z,1003.76
2017-12-13T14:29:11.842Z,1003.68
2017-12-13T14:30:39.108Z,1003.64
2017-12-13T14:32:06.195Z,1003.61
2017-12-13T14:33:33.384Z,1003.52
2017-12-13T14:35:00.721Z,1003.58
2017-12-13T14:36:27.938Z,1003.54
2017-12-13T14:37:55.006Z,1003.49
2017-12-13T14:39:22.278Z,1003.47
2017-12-13T14:40:49.484Z,1003.45
2017-12-13T14:42:16.491Z,1003.41
2017-12-13T14:43:43.553Z,1003.33
2017-12-13T14:45:10.701Z,1003.28
2017-12-13T14:46:37.891Z,1003.27
2017-12-13T14:48:04.731Z,1003.26
2017-12-13T14:49:31.867Z,1003.13
2017-12-13T14:50:59.073Z,1003.07
2017-12-13T14:52:26.275Z,1003.08
2017-12-13T14:53:53.421Z,1003.04
2017-12-13T14:55:20.686Z,1003.00
2017-12-13T14:56:47.781Z,1002.97
2017-12-13T14:58:15.117Z,1002.89
2017-12-13T14:59:42.347Z,1002.86
2017-12-13T15:01:09.571Z,1002.85
2017-12-13T15:02:36.741Z,1002.80
2017-12-13T15:04:04.191Z,1002.72
2017-12-13T15:05:31.271Z,1002.70
2017-12-13T15:06:58.600Z,1002.68
2017-12-13T15:08:25.825Z,1002.64
2017-12-13T15:09:52.987Z,1002.61
2017-12-13T15:11:20.265Z,1002.58
2017-12-13T15:12:47.374Z,1002.53
2017-12-13T15:14:14.630Z,1002.51
2017-12-13T15:15:41.816Z,1002.46
2017-12-13T15:17:09.133Z,1002.44
2017-12-13T15:18:36.359Z,1002.41
2017-12-13T15:20:03.654Z,1002.35
2017-12-13T15:21:31.045Z,1002.25
2017-12-13T15:22:58.187Z,1002.23
2017-12-13T15:24:25.422Z,1002.24
2017-12-13T15:25:52.752Z,1002.21
2017-12-13T15:27:19.961Z,1002.17
2017-12-13T15:28:47.265Z,1002.14
2017-12-13T15:30:14.535Z,1002.08
2017-12-13T15:31:41.608Z,1002.05
2017-12-13T15:33:08.746Z,1002.06
2017-12-13T15:34:35.910Z,1001.99
2017-12-13T15:36:03.000Z,1001.90
2017-12-13T15:37:30.164Z,1001.99
2017-12-13T15:38:57.435Z,1001.90
2017-12-13T15:40:24.366Z,1001.90
2017-12-13T15:41:51.865Z,1001.86
2017-12-13T15:43:18.971Z,1001.84
2017-12-13T15:44:46.024Z,1001.80
2017-12-13T15:46:13.244Z,1001.75
2017-12-13T15:47:40.170Z,1001.70
2017-12-13T15:49:07.425Z,1001.64
2017-12-13T15:50:34.451Z,1001.57
2017-12-13T15:52:01.613Z,1001.54
2017-12-13T15:53:28.955Z,1001.53
2017-12-13T15:54:56.083Z,1001.47
2017-12-13T15:56:23.231Z,1001.45
2017-12-13T15:57:50.539Z,1001.39
2017-12-13T15:59:17.789Z,1001.34
2017-12-13T16:00:45.133Z,1001.32
2017-12-13T16:02:12.370Z,1001.28
2017-12-13T16:03:39.572Z,1001.22
2017-12-13T16:05:06.605Z,1001.22
2017-12-13T16:06:33.932Z,1001.21
2017-12-13T16:08:01.059Z,1001.19
2017-12-13T16:09:27.987Z,1001.13
2017-12-13T16:10:55.076Z,1001.12
2017-12-13T16:12:22.439Z,1001.13
2017-12-13T16:13:49.819Z,1001.03
2017-12-13T16:15:17.212Z,1000.99
2017-12-13T16:16:44.491Z,1000.98
2017-12-13T16:18:11.615Z,1000.89
2017-12-13T16:19:38.850Z,1000.88
2017-12-13T16:21:05.863Z,1000.77
2017-12-13T16:22:33.199Z,1000.75
2017-12-13T16:24:00.393Z,1000.80
2017-12-13T16:25:27.743Z,1000.77
2017-12-13T16:26:54.996Z,1000.76
2017-12-13T16:28:22.206Z,1000.67
2017-12-13T16:29:49.399Z,1000.67
2017-12-13T16:31:16.547Z,1000.60
2017-12-13T16:32:43.940Z,1000.57
2017-12-13T16:34:11.120Z,1000.52
2017-12-13T16:35:38.339Z,1000.52
2017-12-13T16:37:05.558Z,1000.49
2017-12-13T16:38:32.821Z,1000.42
2017-12-13T16:40:00.042Z,1000.40
2017-12-13T16:41:27.251Z,1000.37
2017-12-13T16:42:54.417Z,1000.39
2017-12-13T16:44:21.730Z,1000.39
2017-12-13T16:45:49.044Z,1000.36
2017-12-13T16:47:16.325Z,1000.35
2017-12-13T16:48:43.505Z,1000.32
2017-12-13T16:50:10.789Z,1000.30
2017-12-13T16:51:37.725Z,1000.24
2017-12-13T16:53:04.859Z,1000.25
2017-12-13T16:54:32.057Z,1000.21
2017-12-13T16:55:59.398Z,1000.26
2017-12-13T16:57:26.612Z,1000.17
2017-12-13T16:58:53.820Z,1000.14
2017-12-13T17:00:21.111Z,1000.12
2017-12-13T17:01:48.468Z,1000.01
2017-12-13T17:03:15.606Z,1000.00
2017-12-13T17:04:42.969Z,1000.01
2017-12-13T17:06:10.116Z,999.92
2017-12-13T17:07:37.252Z,999.88
2017-12-13T17:09:04.479Z,999.83
2017-12-13T17:10:31.766Z,999.80
2017-12-13T17:11:58.980Z,999.81
2017-12-13T17:13:26.391Z,999.72
2017-12-13T17:14:53.305Z,999.69
2017-12-13T17:16:20.516Z,999.72
2017-12-13T17:17:47.721Z,999.64
2017-12-13T17:19:15.022Z,999.59
2017-12-13T17:20:42.086Z,999.58
2017-12-13T17:22:09.367Z,999.56
2017-12-13T17:23:36.595Z,999.53
2017-12-13T17:25:03.823Z,999.45
2017-12-13T17:26:31.002Z,999.43
2017-12-13T17:27:58.249Z,999.40
2017-12-13T17:29:25.584Z,999.33
2017-12-13T17:30:52.746Z,999.28
2017-12-13T17:32:19.975Z,999.26
2017-12-13T17:33:47.075Z,999.14
2017-12-13T17:35:14.196Z,999.12